Terminal Aerodrome Forecast
Issued by NWS

Home | Current Version | Previous Version | Text Only | Print | Product List | Glossary On
Versions: 1 2 3 4 5 6 7 8 9 10 11 12 13 14 15 16 17 18 19 20 21 22 23 24 25 26 27
956
FTUS41 KBUF 231143
TAFIAG
TAF
KIAG 231143Z 2312/2412 20011KT P6SM VCSH BKN025
     FM231300 21012G18KT P6SM BKN020
     FM231600 23018G29KT P6SM BKN007
     FM232000 28011KT P6SM BKN025
     FM240000 30006KT P6SM SCT140
     FM240400 05006KT 6SM -SHRA BKN007=

USA.gov is the U.S. government's official web portal to all federal, state and local government web resources and services.